VTS35 PATL-PAED
Flight info
| Callsign | VTS35 |
|---|---|
| Flight time | 1h 5m |
| Altitude | 9000 |
| Route | MCG V440 TED EDF |
| Aircraft | DC6/L-SDE1FGHIJ1RWXY/S |
Departure
| Time | 2026-04-28 11:55 |
|---|---|
| Airport | Tatalina LRRS Airport (PATL) |
Arrival
| Time | 2026-04-28 13:01 |
|---|---|
| Airport | Elmendorf Air Force Base (PAED) |
| Time | Latitude | Longitude | Altitude | Speed | Heading |
|---|---|---|---|---|---|
| 2026-04-28 11:39 | 62.89031 | -155.97759 | 865 ft | 0 kts | 183° |
| 2026-04-28 11:49 | 62.89021 | -155.97761 | 865 ft | 3 kts | 193° |
| 2026-04-28 11:49 | 62.89013 | -155.97781 | 853 ft | 2 kts | 246° |
| 2026-04-28 11:49 | 62.89017 | -155.97804 | 855 ft | 3 kts | 313° |
| 2026-04-28 11:49 | 62.89052 | -155.97825 | 866 ft | 8 kts | 352° |
| 2026-04-28 11:50 | 62.89131 | -155.97837 | 859 ft | 15 kts | 359° |
| 2026-04-28 11:50 | 62.89253 | -155.97822 | 862 ft | 21 kts | 5° |
| 2026-04-28 11:50 | 62.89422 | -155.97800 | 863 ft | 28 kts | 1° |
| 2026-04-28 11:50 | 62.89619 | -155.97799 | 861 ft | 26 kts | 5° |
| 2026-04-28 11:51 | 62.89815 | -155.97779 | 864 ft | 30 kts | 1° |
| 2026-04-28 11:51 | 62.89998 | -155.97748 | 856 ft | 9 kts | 304° |
| 2026-04-28 11:51 | 62.89992 | -155.97774 | 866 ft | 0 kts | 182° |
| 2026-04-28 11:53 | 62.89897 | -155.97763 | 866 ft | 38 kts | 178° |
| 2026-04-28 11:53 | 62.89439 | -155.97791 | 854 ft | 90 kts | 183° |
| 2026-04-28 11:53 | 62.88693 | -155.97849 | 927 ft | 119 kts | 181° |
| 2026-04-28 11:54 | 62.87753 | -155.97857 | 920 ft | 147 kts | 178° |
| 2026-04-28 11:54 | 62.86716 | -155.97601 | 982 ft | 159 kts | 168° |
| 2026-04-28 11:54 | 62.85579 | -155.97137 | 1038 ft | 172 kts | 171° |
| 2026-04-28 11:54 | 62.84404 | -155.96757 | 1280 ft | 170 kts | 171° |
| 2026-04-28 11:55 | 62.83199 | -155.96312 | 1349 ft | 180 kts | 169° |
| 2026-04-28 11:55 | 62.81956 | -155.95852 | 1491 ft | 182 kts | 171° |
| 2026-04-28 11:55 | 62.80703 | -155.95494 | 1678 ft | 181 kts | 173° |
| 2026-04-28 11:55 | 62.79461 | -155.94977 | 1834 ft | 184 kts | 165° |
| 2026-04-28 11:56 | 62.78235 | -155.94071 | 1980 ft | 187 kts | 158° |
| 2026-04-28 11:56 | 62.77054 | -155.92928 | 2217 ft | 183 kts | 150° |
| 2026-04-28 11:56 | 62.76194 | -155.90876 | 2272 ft | 189 kts | 112° |
| 2026-04-28 11:56 | 62.76173 | -155.88027 | 2333 ft | 195 kts | 70° |
| 2026-04-28 11:57 | 62.77020 | -155.85738 | 2447 ft | 197 kts | 34° |
| 2026-04-28 11:57 | 62.78249 | -155.84398 | 2658 ft | 193 kts | 25° |
| 2026-04-28 11:57 | 62.79462 | -155.83249 | 2816 ft | 194 kts | 22° |
| 2026-04-28 11:57 | 62.80755 | -155.82150 | 2894 ft | 199 kts | 21° |
| 2026-04-28 11:58 | 62.82043 | -155.81079 | 3017 ft | 200 kts | 21° |
| 2026-04-28 11:58 | 62.83366 | -155.79973 | 3155 ft | 201 kts | 21° |
| 2026-04-28 11:58 | 62.84675 | -155.78873 | 3291 ft | 202 kts | 21° |
| 2026-04-28 11:58 | 62.85961 | -155.77668 | 3404 ft | 202 kts | 31° |
| 2026-04-28 11:59 | 62.86942 | -155.75469 | 3483 ft | 204 kts | 59° |
| 2026-04-28 11:59 | 62.87654 | -155.72802 | 3629 ft | 203 kts | 57° |
| 2026-04-28 11:59 | 62.88574 | -155.70443 | 3771 ft | 205 kts | 41° |
| 2026-04-28 11:59 | 62.89738 | -155.68652 | 3897 ft | 205 kts | 31° |
| 2026-04-28 12:00 | 62.90951 | -155.67031 | 4035 ft | 205 kts | 32° |
| 2026-04-28 12:00 | 62.92155 | -155.65339 | 4172 ft | 206 kts | 33° |
| 2026-04-28 12:00 | 62.93325 | -155.63532 | 4292 ft | 206 kts | 43° |
| 2026-04-28 12:00 | 62.94094 | -155.60903 | 4370 ft | 208 kts | 72° |
| 2026-04-28 12:01 | 62.94187 | -155.57763 | 4481 ft | 208 kts | 101° |
| 2026-04-28 12:01 | 62.93600 | -155.54880 | 4611 ft | 207 kts | 124° |
| 2026-04-28 12:01 | 62.92758 | -155.52338 | 4772 ft | 206 kts | 126° |
| 2026-04-28 12:01 | 62.91941 | -155.49796 | 4915 ft | 206 kts | 123° |
| 2026-04-28 12:02 | 62.91175 | -155.47089 | 5060 ft | 206 kts | 121° |
| 2026-04-28 12:02 | 62.90431 | -155.44396 | 5199 ft | 206 kts | 121° |
| 2026-04-28 12:02 | 62.89684 | -155.41727 | 5335 ft | 206 kts | 122° |
| 2026-04-28 12:02 | 62.88931 | -155.39055 | 5465 ft | 206 kts | 122° |
| 2026-04-28 12:03 | 62.88181 | -155.36382 | 5604 ft | 206 kts | 122° |
| 2026-04-28 12:03 | 62.87430 | -155.33710 | 5734 ft | 206 kts | 122° |
| 2026-04-28 12:03 | 62.86677 | -155.31032 | 5870 ft | 206 kts | 122° |
| 2026-04-28 12:03 | 62.85925 | -155.28364 | 6046 ft | 205 kts | 122° |
| 2026-04-28 12:04 | 62.85179 | -155.25724 | 6210 ft | 204 kts | 122° |
| 2026-04-28 12:04 | 62.84435 | -155.23081 | 6371 ft | 203 kts | 122° |
| 2026-04-28 12:04 | 62.83696 | -155.20460 | 6529 ft | 202 kts | 122° |
| 2026-04-28 12:04 | 62.82954 | -155.17849 | 6684 ft | 202 kts | 122° |
| 2026-04-28 12:05 | 62.82217 | -155.15259 | 6840 ft | 201 kts | 122° |
| 2026-04-28 12:05 | 62.81484 | -155.12673 | 6991 ft | 200 kts | 122° |
| 2026-04-28 12:05 | 62.80748 | -155.10085 | 7137 ft | 200 kts | 122° |
| 2026-04-28 12:05 | 62.80016 | -155.07510 | 7281 ft | 199 kts | 122° |
| 2026-04-28 12:06 | 62.79287 | -155.04946 | 7442 ft | 197 kts | 124° |
| 2026-04-28 12:06 | 62.78561 | -155.02401 | 7574 ft | 197 kts | 124° |
| 2026-04-28 12:06 | 62.77907 | -155.00108 | 7673 ft | 199 kts | 125° |
| 2026-04-28 12:06 | 62.77172 | -154.97539 | 7789 ft | 200 kts | 126° |
| 2026-04-28 12:07 | 62.76432 | -154.94961 | 7923 ft | 201 kts | 125° |
| 2026-04-28 12:07 | 62.75691 | -154.92361 | 8067 ft | 202 kts | 125° |
| 2026-04-28 12:07 | 62.74943 | -154.89752 | 8208 ft | 203 kts | 125° |
| 2026-04-28 12:07 | 62.74188 | -154.87128 | 8356 ft | 204 kts | 125° |
| 2026-04-28 12:08 | 62.73433 | -154.84505 | 8502 ft | 205 kts | 126° |
| 2026-04-28 12:08 | 62.72674 | -154.81859 | 8659 ft | 205 kts | 126° |
| 2026-04-28 12:08 | 62.71915 | -154.79224 | 8806 ft | 206 kts | 125° |
| 2026-04-28 12:08 | 62.71152 | -154.76579 | 8954 ft | 206 kts | 126° |
| 2026-04-28 12:09 | 62.70383 | -154.73918 | 9019 ft | 212 kts | 126° |
| 2026-04-28 12:09 | 62.69577 | -154.71136 | 9011 ft | 217 kts | 125° |
| 2026-04-28 12:09 | 62.68777 | -154.68371 | 9009 ft | 220 kts | 125° |
| 2026-04-28 12:09 | 62.67958 | -154.65542 | 9000 ft | 222 kts | 125° |
| 2026-04-28 12:10 | 62.67136 | -154.62710 | 9000 ft | 221 kts | 125° |
| 2026-04-28 12:10 | 62.66322 | -154.59902 | 8997 ft | 219 kts | 125° |
| 2026-04-28 12:10 | 62.65507 | -154.57101 | 8992 ft | 218 kts | 125° |
| 2026-04-28 12:10 | 62.64698 | -154.54323 | 8995 ft | 217 kts | 125° |
| 2026-04-28 12:11 | 62.63888 | -154.51551 | 8990 ft | 216 kts | 125° |
| 2026-04-28 12:11 | 62.63085 | -154.48798 | 8991 ft | 216 kts | 125° |
| 2026-04-28 12:11 | 62.62284 | -154.46055 | 8994 ft | 215 kts | 124° |
| 2026-04-28 12:11 | 62.61481 | -154.43313 | 8992 ft | 215 kts | 125° |
| 2026-04-28 12:12 | 62.60682 | -154.40585 | 8995 ft | 214 kts | 124° |
| 2026-04-28 12:12 | 62.59880 | -154.37855 | 8993 ft | 214 kts | 124° |
| 2026-04-28 12:12 | 62.59082 | -154.35135 | 8992 ft | 214 kts | 124° |
| 2026-04-28 12:12 | 62.58283 | -154.32419 | 8991 ft | 214 kts | 124° |
| 2026-04-28 12:13 | 62.57484 | -154.29702 | 8993 ft | 213 kts | 124° |
| 2026-04-28 12:13 | 62.56684 | -154.26991 | 8993 ft | 213 kts | 124° |
| 2026-04-28 12:13 | 62.55885 | -154.24282 | 8993 ft | 213 kts | 124° |
| 2026-04-28 12:13 | 62.55086 | -154.21578 | 8992 ft | 213 kts | 124° |
| 2026-04-28 12:14 | 62.54285 | -154.18867 | 8992 ft | 213 kts | 124° |
| 2026-04-28 12:14 | 62.53484 | -154.16170 | 8993 ft | 213 kts | 124° |
| 2026-04-28 12:14 | 62.52681 | -154.13459 | 8994 ft | 214 kts | 124° |
| 2026-04-28 12:14 | 62.51880 | -154.10760 | 8995 ft | 213 kts | 124° |
| 2026-04-28 12:15 | 62.51075 | -154.08059 | 8993 ft | 213 kts | 124° |
| 2026-04-28 12:15 | 62.50270 | -154.05352 | 8993 ft | 213 kts | 124° |
| 2026-04-28 12:15 | 62.49456 | -154.02614 | 8993 ft | 214 kts | 124° |
| 2026-04-28 12:15 | 62.48662 | -153.99952 | 8994 ft | 214 kts | 124° |
| 2026-04-28 12:16 | 62.47843 | -153.97216 | 8995 ft | 214 kts | 123° |
| 2026-04-28 12:16 | 62.47038 | -153.94522 | 8997 ft | 213 kts | 123° |
| 2026-04-28 12:16 | 62.46233 | -153.91833 | 8996 ft | 213 kts | 123° |
| 2026-04-28 12:16 | 62.45435 | -153.89166 | 8997 ft | 214 kts | 123° |
| 2026-04-28 12:17 | 62.44628 | -153.86478 | 8993 ft | 213 kts | 123° |
| 2026-04-28 12:17 | 62.43822 | -153.83796 | 8996 ft | 214 kts | 123° |
| 2026-04-28 12:17 | 62.43013 | -153.81110 | 8994 ft | 213 kts | 123° |
| 2026-04-28 12:17 | 62.42193 | -153.78383 | 8994 ft | 214 kts | 123° |
| 2026-04-28 12:18 | 62.41392 | -153.75729 | 8999 ft | 214 kts | 123° |
| 2026-04-28 12:18 | 62.40577 | -153.73037 | 8997 ft | 214 kts | 123° |
| 2026-04-28 12:18 | 62.39766 | -153.70338 | 9000 ft | 215 kts | 123° |
| 2026-04-28 12:18 | 62.38950 | -153.67643 | 8997 ft | 215 kts | 124° |
| 2026-04-28 12:19 | 62.38131 | -153.64944 | 9002 ft | 215 kts | 123° |
| 2026-04-28 12:19 | 62.37299 | -153.62207 | 9013 ft | 216 kts | 123° |
| 2026-04-28 12:19 | 62.36489 | -153.59536 | 9016 ft | 215 kts | 123° |
| 2026-04-28 12:19 | 62.35672 | -153.56843 | 9011 ft | 215 kts | 124° |
| 2026-04-28 12:20 | 62.34850 | -153.54147 | 9000 ft | 216 kts | 124° |
| 2026-04-28 12:20 | 62.34026 | -153.51447 | 8998 ft | 215 kts | 124° |
| 2026-04-28 12:20 | 62.33204 | -153.48747 | 9001 ft | 216 kts | 124° |
| 2026-04-28 12:20 | 62.32379 | -153.46050 | 9003 ft | 216 kts | 124° |
| 2026-04-28 12:21 | 62.31552 | -153.43342 | 9000 ft | 216 kts | 124° |
| 2026-04-28 12:21 | 62.30724 | -153.40637 | 9001 ft | 216 kts | 124° |
| 2026-04-28 12:21 | 62.29898 | -153.37949 | 9002 ft | 215 kts | 124° |
| 2026-04-28 12:21 | 62.29072 | -153.35263 | 9001 ft | 215 kts | 124° |
| 2026-04-28 12:22 | 62.28250 | -153.32574 | 9000 ft | 215 kts | 124° |
| 2026-04-28 12:22 | 62.27424 | -153.29895 | 8997 ft | 215 kts | 124° |
| 2026-04-28 12:22 | 62.26601 | -153.27219 | 8996 ft | 215 kts | 124° |
| 2026-04-28 12:22 | 62.25780 | -153.24555 | 8999 ft | 215 kts | 124° |
| 2026-04-28 12:23 | 62.24950 | -153.21874 | 9000 ft | 215 kts | 124° |
| 2026-04-28 12:23 | 62.24124 | -153.19199 | 9000 ft | 214 kts | 124° |
| 2026-04-28 12:23 | 62.23300 | -153.16534 | 9000 ft | 215 kts | 124° |
| 2026-04-28 12:23 | 62.22470 | -153.13858 | 9000 ft | 215 kts | 124° |
| 2026-04-28 12:24 | 62.21646 | -153.11194 | 8993 ft | 214 kts | 124° |
| 2026-04-28 12:24 | 62.20822 | -153.08545 | 8997 ft | 214 kts | 124° |
| 2026-04-28 12:24 | 62.19997 | -153.05894 | 8997 ft | 213 kts | 124° |
| 2026-04-28 12:24 | 62.19452 | -153.04148 | 8994 ft | 213 kts | 124° |
| 2026-04-28 12:25 | 62.18631 | -153.01506 | 8992 ft | 214 kts | 124° |
| 2026-04-28 12:25 | 62.17805 | -152.98853 | 9002 ft | 215 kts | 124° |
| 2026-04-28 12:25 | 62.16973 | -152.96201 | 9001 ft | 214 kts | 124° |
| 2026-04-28 12:25 | 62.16138 | -152.93516 | 9002 ft | 214 kts | 124° |
| 2026-04-28 12:26 | 62.15312 | -152.90876 | 8999 ft | 213 kts | 125° |
| 2026-04-28 12:26 | 62.14485 | -152.88242 | 8997 ft | 213 kts | 125° |
| 2026-04-28 12:26 | 62.13675 | -152.85658 | 8995 ft | 212 kts | 124° |
| 2026-04-28 12:26 | 62.12851 | -152.83036 | 8993 ft | 213 kts | 125° |
| 2026-04-28 12:27 | 62.12026 | -152.80422 | 9001 ft | 213 kts | 125° |
| 2026-04-28 12:27 | 62.11202 | -152.77794 | 9001 ft | 212 kts | 125° |
| 2026-04-28 12:27 | 62.10366 | -152.75142 | 9000 ft | 212 kts | 125° |
| 2026-04-28 12:27 | 62.09544 | -152.72532 | 9000 ft | 212 kts | 125° |
| 2026-04-28 12:28 | 62.08730 | -152.69958 | 8999 ft | 212 kts | 125° |
| 2026-04-28 12:28 | 62.07898 | -152.67327 | 9001 ft | 211 kts | 125° |
| 2026-04-28 12:28 | 62.07076 | -152.64729 | 9001 ft | 211 kts | 125° |
| 2026-04-28 12:28 | 62.06253 | -152.62136 | 9000 ft | 211 kts | 125° |
| 2026-04-28 12:29 | 62.04616 | -152.56974 | 9000 ft | 210 kts | 125° |
| 2026-04-28 12:29 | 62.03792 | -152.54385 | 9001 ft | 210 kts | 125° |
| 2026-04-28 12:29 | 62.02971 | -152.51811 | 9002 ft | 210 kts | 125° |
| 2026-04-28 12:30 | 62.02160 | -152.49265 | 8999 ft | 210 kts | 125° |
| 2026-04-28 12:30 | 62.01339 | -152.46695 | 8996 ft | 210 kts | 125° |
| 2026-04-28 12:30 | 62.00507 | -152.44097 | 8996 ft | 209 kts | 125° |
| 2026-04-28 12:30 | 61.99690 | -152.41530 | 9002 ft | 209 kts | 125° |
| 2026-04-28 12:31 | 61.98871 | -152.38971 | 8997 ft | 209 kts | 125° |
| 2026-04-28 12:31 | 61.98051 | -152.36411 | 9000 ft | 209 kts | 125° |
| 2026-04-28 12:31 | 61.97231 | -152.33862 | 8998 ft | 209 kts | 125° |
| 2026-04-28 12:31 | 61.96412 | -152.31318 | 9005 ft | 208 kts | 125° |
| 2026-04-28 12:32 | 61.95610 | -152.28807 | 9004 ft | 208 kts | 125° |
| 2026-04-28 12:32 | 61.94781 | -152.26242 | 8996 ft | 207 kts | 125° |
| 2026-04-28 12:32 | 61.93973 | -152.23729 | 9022 ft | 206 kts | 125° |
| 2026-04-28 12:32 | 61.93163 | -152.21219 | 9008 ft | 206 kts | 125° |
| 2026-04-28 12:33 | 61.92348 | -152.18709 | 9009 ft | 206 kts | 125° |
| 2026-04-28 12:33 | 61.91539 | -152.16199 | 9010 ft | 206 kts | 125° |
| 2026-04-28 12:33 | 61.90731 | -152.13704 | 9007 ft | 205 kts | 125° |
| 2026-04-28 12:33 | 61.89922 | -152.11199 | 9014 ft | 206 kts | 125° |
| 2026-04-28 12:34 | 61.89108 | -152.08693 | 9021 ft | 207 kts | 125° |
| 2026-04-28 12:34 | 61.88291 | -152.06182 | 9017 ft | 207 kts | 125° |
| 2026-04-28 12:34 | 61.87478 | -152.03680 | 9027 ft | 206 kts | 125° |
| 2026-04-28 12:34 | 61.86663 | -152.01173 | 9022 ft | 207 kts | 125° |
| 2026-04-28 12:35 | 61.85844 | -151.98658 | 9027 ft | 208 kts | 126° |
| 2026-04-28 12:35 | 61.85021 | -151.96142 | 9026 ft | 208 kts | 125° |
| 2026-04-28 12:35 | 61.84201 | -151.93626 | 9029 ft | 208 kts | 126° |
| 2026-04-28 12:35 | 61.83382 | -151.91121 | 9024 ft | 206 kts | 126° |
| 2026-04-28 12:36 | 61.82563 | -151.88624 | 9024 ft | 207 kts | 125° |
| 2026-04-28 12:36 | 61.81749 | -151.86123 | 9014 ft | 205 kts | 125° |
| 2026-04-28 12:36 | 61.80942 | -151.83668 | 9015 ft | 203 kts | 125° |
| 2026-04-28 12:36 | 61.80151 | -151.81246 | 9012 ft | 198 kts | 125° |
| 2026-04-28 12:37 | 61.79373 | -151.78876 | 9023 ft | 194 kts | 125° |
| 2026-04-28 12:37 | 61.78611 | -151.76569 | 9002 ft | 190 kts | 126° |
| 2026-04-28 12:37 | 61.77851 | -151.74280 | 8840 ft | 192 kts | 126° |
| 2026-04-28 12:37 | 61.77086 | -151.71955 | 8715 ft | 192 kts | 125° |
| 2026-04-28 12:38 | 61.76327 | -151.69647 | 8582 ft | 190 kts | 125° |
| 2026-04-28 12:38 | 61.75572 | -151.67359 | 8436 ft | 189 kts | 126° |
| 2026-04-28 12:38 | 61.74817 | -151.65079 | 8293 ft | 189 kts | 126° |
| 2026-04-28 12:38 | 61.74062 | -151.62803 | 8170 ft | 189 kts | 125° |
| 2026-04-28 12:39 | 61.73306 | -151.60533 | 8016 ft | 189 kts | 126° |
| 2026-04-28 12:39 | 61.72554 | -151.58268 | 7882 ft | 188 kts | 125° |
| 2026-04-28 12:39 | 61.71812 | -151.56023 | 7742 ft | 186 kts | 125° |
| 2026-04-28 12:39 | 61.71077 | -151.53797 | 7607 ft | 184 kts | 125° |
| 2026-04-28 12:40 | 61.70337 | -151.51585 | 7451 ft | 185 kts | 125° |
| 2026-04-28 12:40 | 61.69600 | -151.49356 | 7324 ft | 185 kts | 125° |
| 2026-04-28 12:40 | 61.68859 | -151.47136 | 7183 ft | 186 kts | 125° |
| 2026-04-28 12:40 | 61.68112 | -151.44907 | 7050 ft | 186 kts | 126° |
| 2026-04-28 12:41 | 61.67365 | -151.42675 | 6937 ft | 187 kts | 125° |
| 2026-04-28 12:41 | 61.66619 | -151.40432 | 6808 ft | 188 kts | 125° |
| 2026-04-28 12:41 | 61.65861 | -151.38198 | 6670 ft | 187 kts | 126° |
| 2026-04-28 12:41 | 61.65113 | -151.35932 | 6557 ft | 189 kts | 125° |
| 2026-04-28 12:42 | 61.64362 | -151.33694 | 6444 ft | 186 kts | 125° |
| 2026-04-28 12:42 | 61.63613 | -151.31468 | 6324 ft | 187 kts | 125° |
| 2026-04-28 12:42 | 61.62858 | -151.29225 | 6203 ft | 188 kts | 125° |
| 2026-04-28 12:42 | 61.62107 | -151.26981 | 6082 ft | 188 kts | 125° |
| 2026-04-28 12:43 | 61.61351 | -151.24729 | 5973 ft | 187 kts | 125° |
| 2026-04-28 12:43 | 61.60599 | -151.22503 | 5865 ft | 188 kts | 125° |
| 2026-04-28 12:43 | 61.59835 | -151.20254 | 5727 ft | 189 kts | 125° |
| 2026-04-28 12:43 | 61.59067 | -151.17955 | 5631 ft | 195 kts | 125° |
| 2026-04-28 12:44 | 61.58283 | -151.15609 | 5570 ft | 195 kts | 125° |
| 2026-04-28 12:44 | 61.57502 | -151.13328 | 5488 ft | 196 kts | 126° |
| 2026-04-28 12:44 | 61.56684 | -151.10954 | 5396 ft | 199 kts | 125° |
| 2026-04-28 12:44 | 61.55891 | -151.08577 | 5333 ft | 200 kts | 124° |
| 2026-04-28 12:45 | 61.55087 | -151.06196 | 5263 ft | 200 kts | 125° |
| 2026-04-28 12:45 | 61.54281 | -151.03832 | 5238 ft | 199 kts | 125° |
| 2026-04-28 12:45 | 61.53485 | -151.01492 | 5209 ft | 199 kts | 125° |
| 2026-04-28 12:45 | 61.52673 | -150.99104 | 5166 ft | 199 kts | 125° |
| 2026-04-28 12:46 | 61.51869 | -150.96738 | 5135 ft | 199 kts | 125° |
| 2026-04-28 12:46 | 61.51063 | -150.94374 | 5076 ft | 200 kts | 125° |
| 2026-04-28 12:46 | 61.50252 | -150.92005 | 5045 ft | 200 kts | 125° |
| 2026-04-28 12:46 | 61.49443 | -150.89632 | 5025 ft | 200 kts | 125° |
| 2026-04-28 12:47 | 61.48631 | -150.87260 | 5001 ft | 200 kts | 125° |
| 2026-04-28 12:47 | 61.47694 | -150.85134 | 4933 ft | 201 kts | 145° |
| 2026-04-28 12:47 | 61.46407 | -150.84117 | 4978 ft | 196 kts | 161° |
| 2026-04-28 12:47 | 61.45116 | -150.83163 | 4963 ft | 196 kts | 159° |
| 2026-04-28 12:48 | 61.43831 | -150.82194 | 4962 ft | 196 kts | 159° |
| 2026-04-28 12:48 | 61.42546 | -150.81229 | 4961 ft | 196 kts | 159° |
| 2026-04-28 12:48 | 61.41264 | -150.80274 | 4962 ft | 195 kts | 159° |
| 2026-04-28 12:48 | 61.39986 | -150.79317 | 4962 ft | 194 kts | 158° |
| 2026-04-28 12:49 | 61.38871 | -150.77829 | 4926 ft | 193 kts | 136° |
| 2026-04-28 12:49 | 61.38031 | -150.75636 | 4947 ft | 190 kts | 123° |
| 2026-04-28 12:49 | 61.37314 | -150.73296 | 4901 ft | 194 kts | 122° |
| 2026-04-28 12:49 | 61.36580 | -150.70956 | 4941 ft | 190 kts | 124° |
| 2026-04-28 12:50 | 61.35823 | -150.68721 | 4934 ft | 188 kts | 123° |
| 2026-04-28 12:50 | 61.34994 | -150.66549 | 4783 ft | 195 kts | 131° |
| 2026-04-28 12:50 | 61.34039 | -150.64544 | 4714 ft | 193 kts | 136° |
| 2026-04-28 12:50 | 61.33036 | -150.62677 | 4588 ft | 196 kts | 139° |
| 2026-04-28 12:51 | 61.31959 | -150.60863 | 4390 ft | 201 kts | 142° |
| 2026-04-28 12:51 | 61.30838 | -150.59184 | 4387 ft | 196 kts | 145° |
| 2026-04-28 12:51 | 61.29689 | -150.57711 | 4315 ft | 193 kts | 149° |
| 2026-04-28 12:51 | 61.28457 | -150.56441 | 4029 ft | 202 kts | 155° |
| 2026-04-28 12:52 | 61.27132 | -150.55427 | 3895 ft | 201 kts | 162° |
| 2026-04-28 12:52 | 61.25797 | -150.54750 | 3860 ft | 195 kts | 168° |
| 2026-04-28 12:52 | 61.24444 | -150.54404 | 3611 ft | 198 kts | 173° |
| 2026-04-28 12:52 | 61.23076 | -150.53837 | 3284 ft | 202 kts | 162° |
| 2026-04-28 12:53 | 61.21876 | -150.52312 | 2947 ft | 206 kts | 134° |
| 2026-04-28 12:53 | 61.21143 | -150.49783 | 2727 ft | 203 kts | 109° |
| 2026-04-28 12:53 | 61.20757 | -150.47071 | 2720 ft | 191 kts | 104° |
| 2026-04-28 12:53 | 61.20547 | -150.45310 | 2589 ft | 192 kts | 103° |
| 2026-04-28 12:54 | 61.20272 | -150.41706 | 2445 ft | 185 kts | 91° |
| 2026-04-28 12:54 | 61.20359 | -150.39107 | 2369 ft | 178 kts | 78° |
| 2026-04-28 12:54 | 61.20633 | -150.36617 | 2298 ft | 175 kts | 76° |
| 2026-04-28 12:54 | 61.20873 | -150.34191 | 2318 ft | 170 kts | 80° |
| 2026-04-28 12:55 | 61.21025 | -150.31750 | 2288 ft | 170 kts | 85° |
| 2026-04-28 12:55 | 61.21098 | -150.29322 | 2274 ft | 168 kts | 84° |
| 2026-04-28 12:55 | 61.21243 | -150.26920 | 2266 ft | 167 kts | 81° |
| 2026-04-28 12:55 | 61.21410 | -150.24547 | 2273 ft | 166 kts | 82° |
| 2026-04-28 12:56 | 61.21567 | -150.22166 | 2242 ft | 167 kts | 80° |
| 2026-04-28 12:56 | 61.21795 | -150.19820 | 2254 ft | 165 kts | 78° |
| 2026-04-28 12:56 | 61.22012 | -150.17469 | 2242 ft | 166 kts | 80° |
| 2026-04-28 12:56 | 61.22150 | -150.15084 | 2225 ft | 166 kts | 85° |
| 2026-04-28 12:57 | 61.22295 | -150.12721 | 2238 ft | 165 kts | 79° |
| 2026-04-28 12:57 | 61.22543 | -150.10387 | 2222 ft | 165 kts | 77° |
| 2026-04-28 12:57 | 61.22813 | -150.08076 | 2158 ft | 165 kts | 75° |
| 2026-04-28 12:57 | 61.23090 | -150.05795 | 2115 ft | 154 kts | 77° |
| 2026-04-28 12:58 | 61.23304 | -150.03753 | 2042 ft | 141 kts | 79° |
| 2026-04-28 12:58 | 61.23446 | -150.01730 | 1838 ft | 136 kts | 83° |
| 2026-04-28 12:58 | 61.23534 | -149.99849 | 1711 ft | 130 kts | 84° |
| 2026-04-28 12:58 | 61.23644 | -149.97990 | 1499 ft | 129 kts | 81° |
| 2026-04-28 12:59 | 61.23832 | -149.96176 | 1300 ft | 128 kts | 77° |
| 2026-04-28 12:59 | 61.24023 | -149.94362 | 1074 ft | 128 kts | 79° |
| 2026-04-28 12:59 | 61.24166 | -149.92553 | 850 ft | 126 kts | 83° |
| 2026-04-28 12:59 | 61.24306 | -149.90818 | 697 ft | 120 kts | 79° |
| 2026-04-28 13:00 | 61.24459 | -149.89121 | 516 ft | 118 kts | 79° |
| 2026-04-28 13:00 | 61.24617 | -149.87459 | 435 ft | 115 kts | 80° |
| 2026-04-28 13:00 | 61.24739 | -149.85838 | 332 ft | 111 kts | 79° |
| 2026-04-28 13:00 | 61.24831 | -149.84821 | 230 ft | 106 kts | 81° |
| 2026-04-28 13:01 | 61.24947 | -149.83431 | 189 ft | 89 kts | 81° |
| 2026-04-28 13:01 | 61.25034 | -149.82380 | 194 ft | 49 kts | 77° |
| 2026-04-28 13:01 | 61.25063 | -149.82112 | 197 ft | 0 kts | 70° |
| 2026-04-28 13:01 | 61.25074 | -149.82073 | 200 ft | 9 kts | 52° |
| 2026-04-28 13:02 | 61.25182 | -149.82040 | 196 ft | 25 kts | 350° |
| 2026-04-28 13:02 | 61.25391 | -149.82116 | 207 ft | 34 kts | 352° |
| 2026-04-28 13:02 | 61.25578 | -149.82186 | 206 ft | 18 kts | 349° |
| 2026-04-28 13:02 | 61.25630 | -149.82303 | 198 ft | 12 kts | 252° |
| 2026-04-28 13:03 | 61.25592 | -149.82483 | 197 ft | 15 kts | 245° |
| 2026-04-28 13:03 | 61.25524 | -149.82593 | 196 ft | 13 kts | 164° |
| 2026-04-28 13:03 | 61.25478 | -149.82669 | 195 ft | 3 kts | 314° |
| 2026-04-28 13:03 | 61.25490 | -149.82682 | 195 ft | 0 kts | 336° |